Time;durP1;ratioP1;P1;durP2;ratioP2;P2;SDS_P1;SDS_P2;PMS_P1;PMS_P2;Temp;Humidity;BMP_temperature;BMP_pressure;BME280_temperature;BME280_humidity;BME280_pressure;Samples;Min_cycle;Max_cycle;Signal;HPM_P1;HPM_P2
2023/05/11 00:00:14;;;;;;;8.80;5.45;;;;;;;9.15;71.31;93649.41;513607;28;917;-58
2023/05/11 00:00:30;;;;;;;8.47;5.60;;;;;;;9.18;71.47;93648.34;513789;28;857;-58
2023/05/11 00:00:45;;;;;;;6.25;5.70;;;;;;;9.15;71.54;93638.41;513805;28;865;-58
2023/05/11 00:01:05;;;;;;;6.72;6.13;;;;;;;9.18;71.46;93645.59;513725;28;896;-58
2023/05/11 00:01:20;;;;;;;7.88;6.30;;;;;;;9.23;71.65;93649.47;513835;28;993;-58
2023/05/11 00:01:36;;;;;;;6.63;5.93;;;;;;;9.15;71.77;93633.63;513830;28;804;-58
2023/05/11 00:01:51;;;;;;;6.73;6.03;;;;;;;9.23;71.58;93649.47;513859;28;1204;-58
2023/05/11 00:02:08;;;;;;;7.03;6.32;;;;;;;9.29;71.81;93648.06;513840;28;907;-58
2023/05/11 00:02:23;;;;;;;7.03;6.32;;;;;;;9.30;71.58;93646.06;513843;28;832;-58
2023/05/11 00:02:39;;;;;;;7.13;6.25;;;;;;;9.30;71.83;93654.34;513801;28;873;-58
2023/05/11 00:02:54;;;;;;;8.40;6.60;;;;;;;9.27;71.72;93644.41;513774;28;835;-58
2023/05/11 00:03:09;;;;;;;8.57;6.57;;;;;;;9.28;71.87;93654.88;513855;28;847;-58
2023/05/11 00:03:25;;;;;;;9.55;7.20;;;;;;;9.26;71.96;93648.41;513741;28;958;-59
2023/05/11 00:03:41;;;;;;;11.47;7.93;;;;;;;9.25;71.73;93647.69;513793;28;849;-58
2023/05/11 00:03:56;;;;;;;9.43;7.30;;;;;;;9.18;71.67;93646.31;513892;28;933;-58
2023/05/11 00:04:12;;;;;;;8.05;6.80;;;;;;;9.23;71.60;93644.72;513789;28;961;-58
2023/05/11 00:04:28;;;;;;;9.10;6.53;;;;;;;9.25;71.71;93658.69;513848;28;913;-58
2023/05/11 00:04:43;;;;;;;11.18;7.05;;;;;;;9.24;71.52;93651.72;513760;28;924;-58
2023/05/11 00:04:58;;;;;;;14.43;7.40;;;;;;;9.27;71.37;93660.94;513757;28;925;-58
2023/05/11 00:05:14;;;;;;;11.95;7.05;;;;;;;9.26;71.45;93651.19;513760;28;939;-58
2023/05/11 00:05:29;;;;;;;9.00;7.10;;;;;;;9.28;71.59;93649.38;513842;28;1496;-59
2023/05/11 00:05:48;;;;;;;8.75;6.90;;;;;;;9.29;71.18;93658.38;513708;28;864;-59
2023/05/11 00:06:03;;;;;;;9.93;6.43;;;;;;;9.30;71.33;93659.84;513833;28;867;-58
2023/05/11 00:06:19;;;;;;;11.23;6.57;;;;;;;9.31;70.89;93656.56;513858;28;861;-58
2023/05/11 00:06:34;;;;;;;10.07;7.00;;;;;;;9.33;71.08;93659.53;513768;28;821;-58
2023/05/11 00:06:50;;;;;;;10.37;6.63;;;;;;;9.33;71.05;93653.28;513819;28;1553;-58
2023/05/11 00:07:05;;;;;;;9.57;6.25;;;;;;;9.35;70.84;93650.72;513854;28;825;-58
2023/05/11 00:07:20;;;;;;;8.00;6.53;;;;;;;9.35;71.02;93656.97;513766;28;932;-58
2023/05/11 00:07:36;;;;;;;9.60;6.68;;;;;;;9.35;71.06;93659.00;513814;28;893;-58
2023/05/11 00:07:51;;;;;;;9.23;6.73;;;;;;;9.34;71.18;93661.00;513744;28;946;-58
2023/05/11 00:08:07;;;;;;;8.47;7.20;;;;;;;9.34;71.14;93652.72;513829;28;820;-59
2023/05/11 00:08:22;;;;;;;10.40;8.35;;;;;;;9.28;71.25;93657.63;513736;28;831;-59
2023/05/11 00:08:38;;;;;;;10.82;8.82;;;;;;;9.24;71.22;93659.25;513801;28;877;-58
2023/05/11 00:08:53;;;;;;;11.80;8.53;;;;;;;9.21;71.47;93652.03;513742;28;845;-58
2023/05/11 00:09:10;;;;;;;10.87;7.80;;;;;;;9.15;71.44;93647.41;513888;28;778;-58
2023/05/11 00:09:25;;;;;;;8.00;7.20;;;;;;;9.21;71.16;93650.03;513821;28;865;-57
2023/05/11 00:09:41;;;;;;;8.30;7.40;;;;;;;9.20;71.03;93653.31;513792;28;844;-57
2023/05/11 00:09:56;;;;;;;9.35;7.43;;;;;;;9.22;71.04;93653.53;513767;28;861;-58
2023/05/11 00:10:12;;;;;;;8.35;7.15;;;;;;;9.23;71.25;93655.00;513856;28;829;-58
2023/05/11 00:10:28;;;;;;;7.57;6.70;;;;;;;9.19;71.21;93649.81;513842;28;829;-57
2023/05/11 00:10:47;;;;;;;7.03;6.00;;;;;;;9.14;71.04;93658.94;513865;28;813;-58
2023/05/11 00:11:06;;;;;;;6.82;6.07;;;;;;;9.08;71.37;93661.09;513715;28;952;-58
2023/05/11 00:11:22;;;;;;;7.32;6.55;;;;;;;8.91;71.47;93652.44;513805;28;893;-58
2023/05/11 00:11:38;;;;;;;6.50;5.90;;;;;;;8.97;71.82;93656.56;513868;28;802;-58
2023/05/11 00:11:53;;;;;;;5.90;5.32;;;;;;;8.96;71.68;93655.09;513765;28;806;-59
2023/05/11 00:12:08;;;;;;;7.73;5.83;;;;;;;8.91;71.83;93644.19;513810;28;846;-59
2023/05/11 00:12:24;;;;;;;12.60;6.22;;;;;;;9.00;71.67;93655.50;513783;28;857;-58
2023/05/11 00:12:39;;;;;;;10.53;6.20;;;;;;;9.01;71.67;93656.22;513887;28;784;-58
2023/05/11 00:12:55;;;;;;;6.70;6.00;;;;;;;9.02;71.77;93663.22;513735;28;959;-58
2023/05/11 00:13:10;;;;;;;7.07;5.80;;;;;;;9.01;71.70;93662.47;513804;28;1019;-59
2023/05/11 00:13:26;;;;;;;8.03;6.03;;;;;;;9.03;71.52;93659.94;513763;28;877;-58
2023/05/11 00:13:42;;;;;;;7.57;6.05;;;;;;;9.04;71.72;93661.41;513790;28;860;-58
2023/05/11 00:13:57;;;;;;;6.43;5.67;;;;;;;9.05;71.45;93662.88;513761;28;1910;-58
2023/05/11 00:14:13;;;;;;;6.93;5.43;;;;;;;9.08;71.49;93663.84;513795;28;928;-59
2023/05/11 00:14:28;;;;;;;6.97;5.68;;;;;;;9.08;71.30;93667.34;513858;28;782;-58
2023/05/11 00:14:43;;;;;;;6.67;5.97;;;;;;;9.04;71.19;93657.91;513814;28;834;-58
2023/05/11 00:14:59;;;;;;;6.30;5.70;;;;;;;9.02;71.19;93660.47;513856;28;775;-59
2023/05/11 00:15:14;;;;;;;5.78;5.28;;;;;;;8.98;71.75;93658.06;513751;28;1111;-58
2023/05/11 00:15:30;;;;;;;6.07;5.47;;;;;;;8.94;71.80;93659.66;513798;28;887;-58
2023/05/11 00:15:45;;;;;;;6.35;5.68;;;;;;;8.89;71.94;93652.97;513786;28;1514;-59
2023/05/11 00:16:01;;;;;;;6.30;5.70;;;;;;;8.92;71.88;93662.91;513659;28;1442;-59
2023/05/11 00:16:16;;;;;;;7.68;6.10;;;;;;;8.90;72.25;93657.19;514626;28;2373;-58
2023/05/11 00:16:31;;;;;;;11.17;6.10;;;;;;;8.86;72.35;93662.28;515874;28;785;-58
2023/05/11 00:16:47;;;;;;;9.60;5.67;;;;;;;8.83;72.54;93665.38;517161;28;1207;-60
2023/05/11 00:17:02;;;;;;;6.55;5.40;;;;;;;8.82;72.51;93661.88;517849;28;771;-58
2023/05/11 00:17:19;;;;;;;6.33;5.30;;;;;;;8.83;72.52;93657.88;517947;28;840;-58
2023/05/11 00:17:34;;;;;;;6.03;4.95;;;;;;;8.83;72.47;93657.13;517623;28;888;-58
2023/05/11 00:17:50;;;;;;;5.80;5.20;;;;;;;8.85;72.17;93662.84;517716;28;892;-58
2023/05/11 00:18:05;;;;;;;6.22;5.55;;;;;;;8.78;72.22;93660.72;517612;28;849;-58
2023/05/11 00:18:21;;;;;;;6.63;5.47;;;;;;;8.72;72.28;93669.09;517673;28;877;-58
2023/05/11 00:18:36;;;;;;;6.90;5.53;;;;;;;8.73;72.31;93656.81;517614;28;783;-58
2023/05/11 00:18:51;;;;;;;7.25;5.32;;;;;;;8.63;72.33;93644.03;517697;28;864;-59
2023/05/11 00:19:07;;;;;;;6.93;5.40;;;;;;;8.75;72.61;93667.31;517667;28;1092;-59
2023/05/11 00:19:22;;;;;;;6.50;5.82;;;;;;;8.82;72.66;93666.63;517770;28;781;-59
2023/05/11 00:19:37;;;;;;;6.27;5.57;;;;;;;8.79;72.48;93664.97;517888;28;960;-58
2023/05/11 00:19:53;;;;;;;6.43;5.67;;;;;;;8.75;72.35;93667.31;517852;28;814;-59
2023/05/11 00:20:08;;;;;;;6.72;5.88;;;;;;;8.69;72.42;93667.41;517835;28;946;-59
2023/05/11 00:20:24;;;;;;;7.00;5.80;;;;;;;8.67;72.60;93664.44;517866;28;884;-57
2023/05/11 00:20:39;;;;;;;6.35;5.25;;;;;;;8.62;72.78;93676.28;517790;28;1089;-58
2023/05/11 00:20:55;;;;;;;5.33;4.83;;;;;;;8.57;72.85;93663.41;517673;28;1094;-58
2023/05/11 00:21:10;;;;;;;5.70;5.20;;;;;;;8.49;72.83;93668.03;517807;28;939;-58
2023/05/11 00:21:26;;;;;;;6.10;5.43;;;;;;;8.54;73.08;93669.22;517839;28;865;-58
2023/05/11 00:21:41;;;;;;;8.18;5.57;;;;;;;8.53;72.92;93665.75;517779;28;857;-59
2023/05/11 00:21:58;;;;;;;8.13;5.50;;;;;;;8.57;73.00;93673.66;517805;28;903;-58
2023/05/11 00:22:13;;;;;;;6.10;5.28;;;;;;;8.60;72.72;93669.88;517767;28;865;-58
2023/05/11 00:22:28;;;;;;;6.57;5.65;;;;;;;8.59;72.95;93665.63;517941;28;790;-58
2023/05/11 00:22:44;;;;;;;6.87;5.70;;;;;;;8.63;73.11;93666.03;517773;28;933;-57
2023/05/11 00:22:59;;;;;;;6.05;5.47;;;;;;;8.65;72.79;93674.50;517801;28;1040;-58
2023/05/11 00:23:15;;;;;;;5.90;5.30;;;;;;;8.65;72.92;93672.50;517591;28;989;-58
2023/05/11 00:23:30;;;;;;;5.80;4.93;;;;;;;8.62;72.90;93667.31;517666;28;783;-58
2023/05/11 00:23:45;;;;;;;5.55;4.70;;;;;;;8.63;72.76;93668.78;517602;28;943;-57
2023/05/11 00:24:01;;;;;;;5.17;4.60;;;;;;;8.65;72.63;93667.00;517650;28;888;-58
2023/05/11 00:24:16;;;;;;;7.03;4.75;;;;;;;8.66;72.54;93670.50;517731;28;821;-57
2023/05/11 00:24:32;;;;;;;7.63;4.83;;;;;;;8.65;72.51;93667.00;517733;28;957;-58
2023/05/11 00:24:47;;;;;;;5.67;5.00;;;;;;;8.63;72.57;93666.03;517757;28;1329;-58
2023/05/11 00:25:03;;;;;;;6.05;5.45;;;;;;;8.62;72.69;93670.78;517688;28;790;-58
2023/05/11 00:25:18;;;;;;;5.57;5.03;;;;;;;8.61;72.87;93668.59;517880;28;904;-58
2023/05/11 00:25:34;;;;;;;5.57;4.83;;;;;;;8.58;72.53;93670.38;517835;28;798;-59
2023/05/11 00:25:49;;;;;;;6.00;5.05;;;;;;;8.54;72.62;93669.22;517865;28;1022;-58
2023/05/11 00:26:05;;;;;;;5.60;5.00;;;;;;;8.54;72.74;93664.47;517856;28;1556;-58
2023/05/11 00:26:21;;;;;;;5.30;4.80;;;;;;;8.58;72.67;93680.63;517846;28;852;-58
2023/05/11 00:26:36;;;;;;;5.53;4.97;;;;;;;8.60;72.59;93673.34;517864;28;872;-58
2023/05/11 00:26:52;;;;;;;5.63;5.03;;;;;;;8.60;72.68;93667.13;517734;28;809;-58
2023/05/11 00:27:07;;;;;;;6.43;4.90;;;;;;;8.58;72.72;93667.63;517897;28;777;-57
2023/05/11 00:27:22;;;;;;;6.80;4.72;;;;;;;8.56;72.38;93663.91;517827;28;781;-57
2023/05/11 00:27:39;;;;;;;5.73;4.83;;;;;;;8.50;72.54;93671.53;517904;28;762;-58
2023/05/11 00:27:55;;;;;;;6.88;5.10;;;;;;;8.47;72.89;93670.59;517817;28;876;-58
2023/05/11 00:28:10;;;;;;;6.07;5.07;;;;;;;8.48;72.59;93669.34;517904;28;847;-58
2023/05/11 00:28:26;;;;;;;6.15;5.28;;;;;;;8.50;72.93;93663.28;517772;28;878;-58
2023/05/11 00:28:41;;;;;;;6.37;5.33;;;;;;;8.52;72.86;93664.25;517730;28;888;-58
2023/05/11 00:28:56;;;;;;;5.63;4.97;;;;;;;8.52;73.05;93664.25;517824;28;864;-58
2023/05/11 00:29:12;;;;;;;5.47;4.90;;;;;;;8.52;73.06;93667.00;517864;28;785;-59
2023/05/11 00:29:27;;;;;;;5.93;5.33;;;;;;;8.50;72.96;93657.78;517872;28;845;-59
2023/05/11 00:29:43;;;;;;;7.68;5.53;;;;;;;8.54;73.12;93663.72;517643;28;856;-58
2023/05/11 00:29:58;;;;;;;7.00;4.93;;;;;;;8.53;72.85;93668.50;517728;28;853;-58
2023/05/11 00:30:14;;;;;;;5.15;4.63;;;;;;;8.51;72.86;93668.25;517617;28;912;-57
2023/05/11 00:30:29;;;;;;;5.65;4.40;;;;;;;8.45;72.90;93664.88;517732;28;931;-57
2023/05/11 00:30:45;;;;;;;6.47;4.40;;;;;;;8.25;72.81;93646.25;516929;28;1087;-57
2023/05/11 00:31:00;;;;;;;4.90;4.40;;;;;;;8.38;72.79;93668.28;515624;28;837;-54
2023/05/11 00:31:16;;;;;;;5.90;4.38;;;;;;;8.37;72.74;93664.78;515592;28;957;-56
2023/05/11 00:31:31;;;;;;;6.30;4.50;;;;;;;8.38;72.71;93671.03;515688;28;825;-57
2023/05/11 00:31:47;;;;;;;5.03;4.53;;;;;;;8.40;72.78;93666.47;515841;28;849;-57
2023/05/11 00:32:02;;;;;;;6.10;4.67;;;;;;;8.42;72.98;93663.19;515854;28;781;-57
2023/05/11 00:32:17;;;;;;;6.70;4.80;;;;;;;8.44;72.64;93666.16;515838;28;769;-57
2023/05/11 00:32:33;;;;;;;5.60;4.97;;;;;;;8.41;72.86;93664.47;515818;28;935;-56
2023/05/11 00:32:50;;;;;;;5.70;5.03;;;;;;;8.40;73.03;93674.72;515765;28;908;-56
2023/05/11 00:33:05;;;;;;;8.02;4.93;;;;;;;8.43;73.07;93663.91;515813;28;927;-57
2023/05/11 00:33:21;;;;;;;7.38;4.82;;;;;;;8.45;72.98;93673.13;515780;28;829;-57
2023/05/11 00:33:36;;;;;;;6.03;4.97;;;;;;;8.47;73.04;93665.09;515747;28;1654;-57
2023/05/11 00:33:53;;;;;;;6.93;4.93;;;;;;;8.45;72.76;93667.63;515725;28;876;-57
2023/05/11 00:34:08;;;;;;;7.95;4.88;;;;;;;8.38;72.51;93663.50;515850;28;872;-57
2023/05/11 00:34:24;;;;;;;7.40;4.80;;;;;;;8.42;72.61;93668.72;515777;28;1524;-57
2023/05/11 00:34:39;;;;;;;5.77;5.17;;;;;;;8.43;72.62;93672.91;515817;28;873;-57
2023/05/11 00:34:55;;;;;;;7.00;5.13;;;;;;;8.45;72.52;93666.88;515641;28;955;-57
2023/05/11 00:35:11;;;;;;;6.67;4.70;;;;;;;8.46;72.29;93677.38;515862;28;785;-57
2023/05/11 00:35:26;;;;;;;5.25;4.53;;;;;;;8.45;72.27;93664.13;515826;28;929;-57
2023/05/11 00:35:42;;;;;;;5.13;4.50;;;;;;;8.47;72.20;93665.09;517691;28;837;-57
2023/05/11 00:35:58;;;;;;;5.30;4.80;;;;;;;8.51;72.36;93667.53;517716;28;993;-58
2023/05/11 00:36:13;;;;;;;5.37;4.83;;;;;;;8.52;72.23;93671.75;517603;28;1267;-57
2023/05/11 00:36:28;;;;;;;7.40;5.27;;;;;;;8.49;72.00;93673.56;517718;28;848;-57
2023/05/11 00:36:44;;;;;;;6.93;5.40;;;;;;;8.50;72.36;93666.03;517689;28;797;-57
2023/05/11 00:36:59;;;;;;;6.10;5.00;;;;;;;8.47;72.47;93670.59;517645;28;834;-57
2023/05/11 00:37:15;;;;;;;12.25;4.95;;;;;;;8.49;72.41;93670.09;517654;28;1139;-57
2023/05/11 00:37:30;;;;;;;11.23;5.10;;;;;;;8.50;72.36;93664.03;517351;28;1595;-56
2023/05/11 00:37:45;;;;;;;6.07;4.97;;;;;;;8.52;72.42;93674.50;515844;28;797;-57
2023/05/11 00:38:01;;;;;;;6.88;4.97;;;;;;;8.52;72.22;93672.50;515823;28;818;-57
2023/05/11 00:38:16;;;;;;;7.37;4.93;;;;;;;8.52;72.66;93674.50;515836;28;876;-56
2023/05/11 00:38:31;;;;;;;9.27;5.03;;;;;;;8.53;72.39;93663.00;515804;28;856;-57
2023/05/11 00:38:48;;;;;;;8.52;5.18;;;;;;;8.54;72.32;93669.22;515736;28;894;-57
2023/05/11 00:39:04;;;;;;;6.35;5.35;;;;;;;8.56;72.41;93670.16;515669;28;897;-57
2023/05/11 00:39:19;;;;;;;6.57;5.20;;;;;;;8.48;72.60;93665.84;515836;28;873;-56
2023/05/11 00:39:39;;;;;;;6.03;4.53;;;;;;;8.40;72.39;93665.75;515792;28;818;-58
2023/05/11 00:39:54;;;;;;;6.05;4.38;;;;;;;8.34;72.64;93670.59;515740;28;916;-59
2023/05/11 00:40:10;;;;;;;5.33;4.77;;;;;;;8.34;72.59;93670.59;515897;28;832;-59
2023/05/11 00:40:25;;;;;;;5.72;4.53;;;;;;;8.32;72.63;93668.38;515800;28;869;-58
2023/05/11 00:40:40;;;;;;;4.93;4.33;;;;;;;8.35;72.88;93666.59;515810;28;800;-58
2023/05/11 00:40:56;;;;;;;4.97;4.47;;;;;;;8.38;72.83;93668.28;515797;28;800;-58
2023/05/11 00:41:12;;;;;;;6.07;5.00;;;;;;;8.41;72.58;93672.72;515901;28;828;-58
2023/05/11 00:41:27;;;;;;;6.93;5.18;;;;;;;8.41;72.52;93672.72;515792;28;997;-57
2023/05/11 00:41:42;;;;;;;5.47;4.80;;;;;;;8.39;72.39;93675.25;515762;28;874;-58
2023/05/11 00:41:58;;;;;;;6.00;5.00;;;;;;;8.40;72.47;93677.47;515689;28;1122;-58
2023/05/11 00:42:13;;;;;;;6.87;5.20;;;;;;;8.38;72.08;93662.78;515824;28;855;-58
2023/05/11 00:42:29;;;;;;;8.30;5.10;;;;;;;8.43;72.39;93670.16;515879;28;828;-59
2023/05/11 00:42:44;;;;;;;8.77;5.07;;;;;;;8.46;72.36;93669.13;515729;28;872;-58
2023/05/11 00:42:59;;;;;;;7.73;4.87;;;;;;;8.50;72.12;93671.53;515813;28;1010;-58
2023/05/11 00:43:15;;;;;;;7.30;5.00;;;;;;;8.51;71.93;93673.03;515782;28;948;-59
2023/05/11 00:43:31;;;;;;;6.43;5.10;;;;;;;8.52;72.21;93667.00;515766;28;1353;-59
2023/05/11 00:43:46;;;;;;;6.13;4.93;;;;;;;8.56;72.06;93667.41;515809;28;848;-58
2023/05/11 00:44:01;;;;;;;8.57;5.17;;;;;;;8.58;72.04;93670.38;515787;28;857;-58
2023/05/11 00:44:17;;;;;;;9.18;5.28;;;;;;;8.60;72.18;93669.88;515797;28;1178;-58
2023/05/11 00:44:32;;;;;;;6.33;5.13;;;;;;;8.49;72.10;93650.81;515788;28;940;-58
2023/05/11 00:44:48;;;;;;;5.80;5.20;;;;;;;8.56;71.47;93664.66;515823;28;868;-58
2023/05/11 00:45:04;;;;;;;7.53;5.28;;;;;;;8.55;71.65;93671.47;515771;28;846;-57
2023/05/11 00:45:19;;;;;;;7.43;5.30;;;;;;;8.56;71.78;93667.41;515813;28;805;-58
2023/05/11 00:45:35;;;;;;;7.27;5.20;;;;;;;8.58;71.60;93669.63;515759;28;942;-57
2023/05/11 00:45:52;;;;;;;8.45;5.38;;;;;;;8.60;71.41;93665.09;515809;28;1213;-58
2023/05/11 00:46:07;;;;;;;8.68;5.13;;;;;;;8.64;71.47;93668.25;515802;28;956;-58
2023/05/11 00:46:23;;;;;;;8.55;5.00;;;;;;;8.65;71.50;93669.00;515810;28;840;-58
2023/05/11 00:46:38;;;;;;;5.83;5.17;;;;;;;8.64;71.77;93665.50;515808;28;1082;-58
2023/05/11 00:46:54;;;;;;;5.90;5.30;;;;;;;8.57;71.77;93659.91;515608;28;852;-58
2023/05/11 00:47:09;;;;;;;5.65;5.03;;;;;;;8.66;71.41;93664.97;515697;28;824;-58
2023/05/11 00:47:25;;;;;;;6.20;4.93;;;;;;;8.69;71.56;93667.41;515615;28;879;-58
2023/05/11 00:47:40;;;;;;;5.95;5.05;;;;;;;8.67;71.82;93656.19;515610;28;959;-58
2023/05/11 00:47:57;;;;;;;5.60;5.10;;;;;;;8.68;71.28;93665.94;515654;28;875;-58
2023/05/11 00:48:13;;;;;;;5.80;5.30;;;;;;;8.59;72.20;93669.13;515590;28;936;-59
2023/05/11 00:48:29;;;;;;;5.55;5.05;;;;;;;8.54;72.07;93663.72;515673;28;912;-58
2023/05/11 00:48:45;;;;;;;5.25;4.75;;;;;;;8.52;71.99;93666.25;515570;28;833;-59
2023/05/11 00:49:00;;;;;;;5.65;4.72;;;;;;;8.35;71.69;93644.56;515593;28;865;-58
2023/05/11 00:49:20;;;;;;;5.90;4.60;;;;;;;8.44;71.96;93660.66;515766;28;899;-56
2023/05/11 00:49:35;;;;;;;6.13;5.05;;;;;;;8.43;71.75;93658.41;515617;28;971;-57
2023/05/11 00:49:52;;;;;;;5.97;5.20;;;;;;;8.37;71.92;93659.28;515601;28;935;-58
2023/05/11 00:50:08;;;;;;;5.85;4.95;;;;;;;8.36;71.93;93665.28;515688;28;896;-57
2023/05/11 00:50:25;;;;;;;5.68;4.68;;;;;;;8.34;71.79;93654.09;515617;28;837;-57
2023/05/11 00:50:41;;;;;;;5.47;4.90;;;;;;;8.37;72.02;93662.03;515610;28;926;-57
2023/05/11 00:50:58;;;;;;;5.43;4.70;;;;;;;8.42;71.43;93670.72;515593;28;853;-57
2023/05/11 00:51:13;;;;;;;5.28;4.78;;;;;;;8.44;71.47;93662.66;515661;28;884;-57
2023/05/11 00:51:31;;;;;;;5.47;4.90;;;;;;;8.44;71.81;93665.41;515252;28;881;-58
2023/05/11 00:51:46;;;;;;;5.25;4.75;;;;;;;8.40;71.79;93665.75;515616;28;940;-56
2023/05/11 00:52:02;;;;;;;5.30;4.80;;;;;;;8.22;72.10;93641.78;515553;28;904;-57
2023/05/11 00:52:18;;;;;;;6.18;5.15;;;;;;;8.36;72.01;93666.03;515642;28;999;-57
2023/05/11 00:52:34;;;;;;;8.07;5.20;;;;;;;8.38;72.01;93662.78;513631;28;861;-58
2023/05/11 00:52:50;;;;;;;9.05;5.35;;;;;;;8.38;72.42;93660.75;513658;28;830;-57
2023/05/11 00:53:05;;;;;;;7.97;5.30;;;;;;;8.40;72.21;93663.00;513622;28;868;-58
2023/05/11 00:53:20;;;;;;;5.70;4.70;;;;;;;8.43;72.08;93653.66;514357;28;892;-58
2023/05/11 00:53:36;;;;;;;5.07;4.50;;;;;;;8.33;72.34;93656.13;513587;28;897;-58
2023/05/11 00:53:52;;;;;;;5.87;4.77;;;;;;;8.26;72.28;93656.75;513589;28;830;-58
2023/05/11 00:54:13;;;;;;;6.28;4.68;;;;;;;8.28;72.50;93667.22;513547;28;1977;-59
2023/05/11 00:54:30;;;;;;;6.78;4.80;;;;;;;8.25;72.29;93657.25;511616;29;930;-58
2023/05/11 00:54:46;;;;;;;6.13;4.72;;;;;;;8.29;72.39;93665.94;511571;29;928;-58
2023/05/11 00:55:02;;;;;;;5.38;4.88;;;;;;;8.29;72.58;93663.19;511578;29;822;-58
2023/05/11 00:55:19;;;;;;;5.63;5.13;;;;;;;8.35;72.36;93672.09;511672;29;1095;-58
2023/05/11 00:55:34;;;;;;;5.93;5.00;;;;;;;8.34;72.25;93665.09;513187;28;948;-58
2023/05/11 00:55:50;;;;;;;7.00;4.47;;;;;;;8.33;71.93;93666.38;515383;28;869;-58
2023/05/11 00:56:05;;;;;;;6.78;4.50;;;;;;;8.34;72.01;93667.84;515616;28;1081;-56
2023/05/11 00:56:21;;;;;;;5.37;4.60;;;;;;;8.33;71.67;93663.63;515293;28;822;-56
2023/05/11 00:56:36;;;;;;;5.00;4.50;;;;;;;8.37;71.58;93666.78;515619;28;801;-56
2023/05/11 00:56:51;;;;;;;4.97;4.47;;;;;;;8.31;71.78;93664.16;513579;28;805;-57
2023/05/11 00:57:07;;;;;;;4.87;4.17;;;;;;;8.25;71.69;93666.25;513625;28;1645;-56
2023/05/11 00:57:22;;;;;;;4.47;4.07;;;;;;;8.20;72.02;93672.59;513601;28;908;-56
2023/05/11 00:57:38;;;;;;;6.97;4.57;;;;;;;8.19;72.30;93673.84;513568;28;801;-57
2023/05/11 00:57:53;;;;;;;6.97;4.80;;;;;;;8.16;72.32;93676.91;513597;28;1068;-57
2023/05/11 00:58:09;;;;;;;4.93;4.50;;;;;;;8.15;72.56;93676.16;513892;28;821;-57
2023/05/11 00:58:24;;;;;;;5.03;4.53;;;;;;;8.19;72.60;93667.59;515696;28;825;-57
2023/05/11 00:58:39;;;;;;;5.10;4.60;;;;;;;8.15;72.38;93673.41;515608;28;825;-56
2023/05/11 00:58:55;;;;;;;5.33;4.60;;;;;;;8.12;72.29;93673.75;515706;28;851;-58
2023/05/11 00:59:12;;;;;;;5.55;4.55;;;;;;;8.11;72.67;93669.50;515813;28;855;-58
2023/05/11 00:59:27;;;;;;;5.80;4.53;;;;;;;8.09;72.75;93670.03;515851;28;876;-57
2023/05/11 00:59:43;;;;;;;4.97;4.43;;;;;;;8.14;72.68;93668.44;515741;28;805;-57
2023/05/11 01:00:01;;;;;;;5.30;4.80;;;;;;;8.14;72.96;93662.94;515857;28;845;-57
2023/05/11 01:00:17;;;;;;;6.55;5.35;;;;;;;8.17;73.33;93668.13;515759;28;955;-57
2023/05/11 01:00:32;;;;;;;5.20;4.60;;;;;;;8.20;72.95;93669.09;515807;28;824;-57
2023/05/11 01:00:48;;;;;;;5.78;4.30;;;;;;;8.17;72.52;93667.38;515747;28;880;-57
2023/05/11 01:01:03;;;;;;;5.87;4.40;;;;;;;8.09;72.47;93661.03;515722;28;849;-58
2023/05/11 01:01:19;;;;;;;4.90;4.40;;;;;;;8.09;72.77;93666.53;515840;28;1110;-57
2023/05/11 01:01:37;;;;;;;4.90;4.40;;;;;;;8.05;73.22;93666.13;515755;28;889;-57
2023/05/11 01:01:52;;;;;;;5.00;4.50;;;;;;;8.01;73.02;93658.16;515763;28;788;-59
2023/05/11 01:02:08;;;;;;;5.30;4.63;;;;;;;7.94;73.14;93666.31;515764;28;864;-57
2023/05/11 01:02:23;;;;;;;4.63;4.03;;;;;;;7.91;73.12;93668.09;515680;28;963;-56
2023/05/11 01:02:39;;;;;;;5.00;4.10;;;;;;;7.88;73.16;93665.66;515802;28;801;-58
2023/05/11 01:02:55;;;;;;;5.15;4.45;;;;;;;7.82;73.95;93665.03;515718;28;908;-58
2023/05/11 01:03:12;;;;;;;5.50;4.70;;;;;;;7.84;73.88;93663.22;515580;28;841;-58
2023/05/11 01:03:28;;;;;;;7.72;5.10;;;;;;;7.90;73.82;93657.63;515698;28;867;-58
2023/05/11 01:03:44;;;;;;;7.22;5.05;;;;;;;7.89;73.87;93662.38;515629;28;883;-58
2023/05/11 01:04:00;;;;;;;8.80;5.22;;;;;;;7.91;74.10;93665.34;515590;28;809;-57
2023/05/11 01:04:15;;;;;;;8.77;5.43;;;;;;;7.91;74.34;93667.34;513588;28;869;-58
2023/05/11 01:04:31;;;;;;;6.00;5.00;;;;;;;7.91;74.07;93665.34;511635;29;877;-58
2023/05/11 01:04:47;;;;;;;5.85;4.82;;;;;;;7.94;74.24;93666.31;511618;29;912;-58
2023/05/11 01:05:02;;;;;;;5.77;5.17;;;;;;;7.96;73.93;93664.50;512375;28;770;-58
2023/05/11 01:05:18;;;;;;;5.85;5.25;;;;;;;8.00;73.72;93670.44;513588;28;864;-58
2023/05/11 01:05:59;;;;;;;7.33;5.03;;;;;;;8.10;73.55;93660.50;511520;29;1285;-58
2023/05/11 01:06:14;;;;;;;5.47;4.60;;;;;;;8.16;73.34;93666.66;513180;28;1424;-58
2023/05/11 01:06:45;;;;;;;6.77;5.03;;;;;;;8.13;73.31;93664.97;515276;28;825;-59
2023/05/11 01:07:09;;;;;;;5.60;4.60;;;;;;;8.04;72.89;93665.38;515535;28;912;-58
2023/05/11 01:07:36;;;;;;;5.07;4.38;;;;;;;8.07;73.25;93667.06;514119;28;936;-58
2023/05/11 01:08:01;;;;;;;5.50;4.70;;;;;;;8.10;72.90;93665.28;515549;28;869;-59
2023/05/11 01:08:46;;;;;;;6.47;4.45;;;;;;;8.07;72.83;93660.81;513592;28;1347;-59
2023/05/11 01:09:05;;;;;;;5.70;5.00;;;;;;;8.10;73.18;93662.53;511539;29;1012;-58
2023/05/11 01:09:31;;;;;;;6.38;4.90;;;;;;;8.06;73.23;93660.06;511017;29;832;-59
2023/05/11 01:09:54;;;;;;;5.25;4.68;;;;;;;8.07;73.24;93658.81;509617;29;928;-58
2023/05/11 01:10:34;;;;;;;5.50;4.38;;;;;;;8.11;72.88;93670.25;510593;28;901;-58
2023/05/11 01:11:09;;;;;;;5.70;4.50;;;;;;;8.16;72.45;93663.16;511725;28;2057;-57
2023/05/11 01:11:29;;;;;;;5.40;4.75;;;;;;;8.17;72.77;93670.88;515584;28;1032;-59
2023/05/11 01:11:50;;;;;;;5.20;4.70;;;;;;;8.21;72.50;93673.31;515582;28;889;-59
2023/05/11 01:12:15;;;;;;;6.57;4.97;;;;;;;8.22;72.63;93664.53;514790;28;826;-59
2023/05/11 01:12:46;;;;;;;6.30;4.75;;;;;;;8.21;72.18;93665.81;515484;28;2370;-59
2023/05/11 01:13:23;;;;;;;5.43;4.85;;;;;;;8.23;72.36;93668.00;515450;28;955;-58
2023/05/11 01:13:42;;;;;;;5.50;4.78;;;;;;;8.17;72.67;93662.63;515550;28;1126;-58
2023/05/11 01:14:12;;;;;;;5.15;4.53;;;;;;;8.20;72.35;93669.09;516316;28;1970;-58
2023/05/11 01:14:45;;;;;;;6.57;5.22;;;;;;;8.20;72.35;93666.34;517593;28;917;-58
2023/05/11 01:15:23;;;;;;;4.95;4.47;;;;;;;8.20;72.53;93664.34;515487;28;943;-59
2023/05/11 01:15:50;;;;;;;5.22;4.72;;;;;;;8.15;72.79;93661.66;515560;28;926;-58
2023/05/11 01:16:16;;;;;;;5.75;5.15;;;;;;;8.19;72.68;93668.34;513381;28;1269;-59
2023/05/11 01:16:34;;;;;;;5.88;4.70;;;;;;;8.23;72.94;93670.75;511584;29;1124;-57
2023/05/11 01:16:55;;;;;;;5.78;4.68;;;;;;;8.25;72.69;93658.00;511813;28;1326;-57
2023/05/11 01:17:17;;;;;;;4.93;4.53;;;;;;;8.29;72.89;93671.44;511697;29;837;-57
2023/05/11 01:17:40;;;;;;;5.50;5.00;;;;;;;8.30;72.80;93667.41;511591;29;853;-57
2023/05/11 01:18:32;;;;;;;5.28;4.55;;;;;;;8.38;72.61;93662.78;512043;28;839;-57
2023/05/11 01:19:01;;;;;;;7.05;4.68;;;;;;;8.29;71.62;93665.94;517221;28;803;-59
2023/05/11 01:19:37;;;;;;;5.10;4.63;;;;;;;8.28;71.41;93667.22;517638;28;951;-56
2023/05/11 01:19:57;;;;;;;6.10;4.25;;;;;;;8.24;71.32;93670.25;517801;28;808;-56
2023/05/11 01:20:24;;;;;;;8.18;4.50;;;;;;;8.21;71.34;93665.06;517795;28;850;-56
2023/05/11 01:20:42;;;;;;;5.50;4.47;;;;;;;8.16;71.56;93655.66;517548;28;896;-57
2023/05/11 01:21:01;;;;;;;6.10;4.35;;;;;;;8.15;71.70;93661.66;517515;28;1114;-59
2023/05/11 01:21:17;;;;;;;5.85;4.47;;;;;;;8.10;72.02;93651.53;517577;28;904;-59
2023/05/11 01:21:33;;;;;;;4.97;4.30;;;;;;;8.15;72.04;93665.16;515592;28;913;-58
2023/05/11 01:21:49;;;;;;;5.55;4.50;;;;;;;8.00;72.21;93642.19;515648;28;845;-58
2023/05/11 01:22:14;;;;;;;6.78;4.85;;;;;;;8.19;72.61;93662.09;515568;28;881;-59
2023/05/11 01:22:47;;;;;;;8.82;5.20;;;;;;;8.24;72.51;93659.25;514172;28;1609;-59
2023/05/11 01:23:09;;;;;;;4.95;4.30;;;;;;;8.23;72.47;93662.50;515507;28;1878;-59
2023/05/11 01:23:57;;;;;;;5.07;4.55;;;;;;;8.20;72.69;93663.59;516422;28;856;-58
2023/05/11 01:24:36;;;;;;;6.70;5.25;;;;;;;8.28;72.60;93667.22;517433;28;979;-58
2023/05/11 01:24:54;;;;;;;4.93;4.43;;;;;;;8.29;72.19;93665.94;517551;28;868;-59
2023/05/11 01:25:27;;;;;;;5.30;4.80;;;;;;;8.29;72.22;93660.44;517622;28;990;-58
2023/05/11 01:25:51;;;;;;;5.70;4.82;;;;;;;8.31;72.35;93663.41;515577;28;866;-58
2023/05/11 01:26:28;;;;;;;6.78;4.88;;;;;;;8.35;72.24;93658.31;515568;28;902;-59
2023/05/11 01:27:01;;;;;;;5.43;4.90;;;;;;;8.39;72.13;93667.00;516234;28;884;-58